Latest Observation

67 Stations

10 Minute Data
as of 5/10/26 2:34 AM PDT
Station Date Time Temp (°F) RH (%) Dew Pt (°F) Wind Spd (mph) Wind Dir (°) Wind Gust (mph) Wind Gst Dir (°) Latest Rain (In) Soil Moist (%) Soil Temp (°F) Daily Rain (In) Daily Min Temp (°F) Daily Max Temp (°F) Daily Max Wind (mph)
Hobart Mills 5/10/26 0230 40.3   1.0 65   22 29.7   8.4 1.9   0.2 W | 268 3.1   0.1 W | 277 0.00 - 32.0   0.0 0.03 28.9   0.0 73.1   2.5 9.4   0.9
Prosser Dam 5/10/26 0230 39.5   1.6 88   5 36.2   3.1 0.3   0.5 W | 260 1.5   0.7 W | 279 0.00 21.2   1.1 55.1   1.9 0.00 39.2   1.6 43.0   0.9 4.0   0.1
West Incline Village 5/10/26 0230 55.5   6.2 22   42 17.1   20.4 2.5   0.1 NNE | 17 6.7   3.0 NE | 50 0.00 32.0   0.6 47.8   0.9 0.00 54.3   5.3 58.0   6.8 6.7   3.0
Incline Village (Fairview Blvd) 5/10/26 0230 57.8   7.3 19   41 16.3   21.2 1.5   1.2 NE | 38 3.6   1.7 NNE | 23 0.00 25.8   0.2 54.9   1.6 0.00 56.2   5.8 59.3   7.9 4.7   2.0
Incline Village (Diamond Peak) 5/10/26 0230 59.3 17 14.4 4.5 E | 83 4.8 E | 84 0.00 9.1 52.3 0.00 59.2 59.8 8.9
Incline Village (Mill Creek) 5/10/26 0230 55.3   7.2 28   36 22.7   13.6 0.5   0.5 ESE | 107 1.9   1.9 SE | 127 0.00 10.8   0.1 48.2   0.9 0.00 55.0   7.0 60.7   10.6 3.0   0.5
Incline Village (Lakeshore Blvd) 5/10/26 0230 44.6   2.5 53   25 28.7   7.1 1.0   0.4 NE | 35 2.2   0.7 ENE | 57 0.00 30.5   0.7 54.9   0.6 0.00 44.3   2.4 47.1   3.1 3.0   0.2
Glenbrook 5/10/26 0230 47.1   3.0 45   35 26.6   11.6 1.3   1.1 E | 87 2.7   1.1 NE | 44 0.00 44.3   0.0 46.7   0.3 0.00 46.8   2.9 49.4   3.5 5.7   3.6
Zephyr Cove 5/10/26 0230 50.4   4.2 39   26 26.2   8.7 0.0   0.0 N | 0 0.0   0.0 SSW | 199 0.00 - 34.3   0.0 0.00 50.4   4.2 52.7   2.6 0.0   0.6
Kingsbury Grade 5/10/26 0230 49.1   4.6 37   27 23.8   9.1 1.0   0.0 NNE | 19 3.2   1.0 N | 6 0.00 6.5   0.3 58.7   1.9 0.00 48.0   3.8 52.1   5.0 4.1   0.7
South Daggett Pass (Ridge) 5/10/26 0230 57.7   4.6 21   26 18.5   15.1 3.6   1.2 SE | 130 6.1   4.8 SSE | 161 0.00 6.7   0.0 51.5   1.3 0.00 57.5   5.1 58.5   3.9 7.9   3.0
Palomino Valley 5/10/26 0230 52.0   1.3 32   19 23.0   12.7 2.5   0.5 E | 96 6.2   2.6 E | 96 0.00 7.2   0.0 71.9   1.3 0.00 48.8   3.2 54.0   3.6 6.2   2.1
East Cold Springs 5/10/26 0230 58.3   3.1 27   28 24.1   15.3 2.9   3.1 WSW | 255 4.8   4.0 W | 264 0.00 1.8   0.0 60.6   0.7 0.00 57.4   3.2 62.2   5.0 7.5   2.0
Peavine 5/10/26 0230 58.2   2.9 24   21 21.2   13.0 7.0   6.8 SSE | 158 9.3   6.6 SSE | 157 0.00 - 53.4   0.0 0.00 57.2   2.1 60.1   2.8 13.8   6.5
West Verdi Peak 5/10/26 0230 55.5   1.9 27   25 22.4   14.5 1.8   1.3 NNW | 339 3.0   2.0 N | 0 0.00 18.3   1.3 56.8   0.7 0.00 53.6   4.3 57.5   2.5 3.5   2.5
West Verdi 5/10/26 0230 52.1   0.4 41   21 28.8   10.9 2.2   0.7 S | 171 3.2   2.6 S | 189 0.00 7.9   0.1 67.5   1.4 0.00 51.1   0.7 54.6   0.9 5.5   2.2
South Verdi 5/10/26 0230 60.7   2.7 24   25 24.2   15.0 3.4   3.5 WSW | 248 5.7   4.2 WSW | 248 0.00 16.1   0.3 64.9   1.1 0.00 59.5   4.5 63.5   3.3 14.2   1.2
Northwest Reno 5/10/26 0230 60.8   1.6 24   12 24.0   11.6 3.9   9.5 N | 2 6.0   10.3 NNE | 23 0.00 24.2   0.0 69.1   1.8 0.00 60.6   1.5 64.8   1.2 7.6   9.9
North Lawton 5/10/26 0230 56.6   2.6 32   26 27.1   12.4 3.9   1.8 W | 263 5.7   3.7 WSW | 258 0.00 - 60.4   0.0 0.00 55.4   1.8 58.8   1.1 9.9   0.6
West Reno (Mogul) 5/10/26 0230 56.1   3.6 33   14 27.4   12.2 0.1   6.9 SW | 230 2.6   7.7 SW | 226 0.00 36.1   0.6 64.3   0.9 0.00 55.0   0.7 65.1   2.6 8.3   3.0
Caughlin (Hunter Lake Trail) 9/16/25 0800 59.7   3.5 41   11 35.9   2.7 0.0   0.0 N | 0 0.0   0.0 ENE | 66 0.00 15.7   0.0 69.8   0.5 0.00 55.7   3.2 67.7   9.1 9.4   0.9
ArrowCreek 5/10/26 0230 59.5   1.8 26   23 24.1   14.7 6.3   4.1 WSW | 242 9.7   3.1 WSW | 254 0.00 - 32.0   0.0 0.00 56.6   0.1 62.6   1.8 9.7   0.5
Tracy 5/10/26 0230 55.2   5.9 51   6 37.2   2.1 0.0   3.4 N | 0 0.0   5.5 E | 85 0.00 8.2   0.0 70.3   1.0 0.00 55.0   5.8 61.1   5.3 4.3   4.6
Virginia Highlands 5/10/26 0230 62.6   6.3 17   34 17.1   21.4 1.6   2.5 SSE | 167 3.0   4.1 S | 181 0.00 8.0   0.2 59.8   1.1 0.00 59.6   3.5 65.5   6.7 6.1   1.0
Virginia City 5/10/26 0230 60.7   2.6 18   25 17.0   18.7 0.5   12.8 N | 354 1.7   17.1 NNW | 335 0.00 8.4   0.1 61.7   1.4 0.00 60.3   2.2 63.9   3.1 5.1   22.0
Six Mile Canyon 9/9/25 0630 60.2   9.6 37   6 33.7   4.8 4.1   2.5 W | 277 6.1   2.9 WNW | 286 0.00 12.5   0.0 75.5   0.7 0.00 57.9   7.6 64.4   1.9 7.0   3.9
Mt Rose Highway 4/30/26 0510 40.8   4.7 47   13 22.3   1.3 2.3   0.2 WSW | 243 4.8   2.1 WSW | 246 0.00 24.1   0.3 43.0   0.8 0.00 40.5   4.7 43.0   5.3 7.7   0.4
Pleasant Valley 5/10/26 0230 52.3   0.8 40   19 28.7   9.0 3.9   2.0 W | 262 5.7   2.5 W | 264 0.00 2.9   0.0 68.4   1.6 0.00 51.2   0.5 55.6   0.6 7.7   1.7
New Washoe City 5/10/26 0230 53.2   0.8 30   26 22.5   16.3 5.3   1.1 NNE | 32 8.2   2.0 NE | 48 0.00 4.5   0.1 64.3   1.3 0.00 52.9   0.5 55.2   0.9 11.3   1.1
Franktown Creek 5/10/26 0230 50.6   1.8 40   12 27.0   8.3 2.6   2.6 WNW | 302 3.8   3.8 NW | 310 0.00 11.2   0.1 60.1   1.3 0.00 49.9   0.5 52.6   0.2 3.8   1.0
Musgrove Creek 5/10/26 0230 59.4   2.5 22   26 20.0   17.1 0.8   0.2 SW | 224 2.5   0.1 SSW | 209 0.00 40.1   1.6 55.2   0.4 0.00 59.0   2.5 61.4   1.7 2.6   0.7
East Carson 11/23/24 0110 28.6   28.4 - - 4.7   11.0 SW | 220 14.7   10.1 SW | 219 0.02 - 50.9   0.1 0.02 -25.9   79.1 42.9   14.6 16.0   10.7
Kings Canyon 5/10/26 0230 51.8   0.9 36   20 25.5   10.3 3.9   0.4 SSW | 197 5.2   0.7 SSW | 212 0.00 14.1   0.5 62.9   1.4 0.00 51.0   0.8 56.5   2.1 7.1   0.6
Carson City (Voltaire Canyon) 5/10/26 0230 65.6   4.9 19   22 22.8   14.4 5.2   4.6 WSW | 240 7.7   4.1 WSW | 242 0.00 2.9   0.1 64.9   1.4 0.00 63.1   4.1 66.7   3.8 10.3   1.9
Jacks Valley 5/10/26 0230 56.8   3.8 29   20 25.1   9.4 0.3   1.9 WSW | 258 1.9   0.9 WSW | 258 0.00 13.0   0.4 69.8   1.4 0.00 55.2   2.8 59.0   0.5 3.0   0.1
Genoa 5/10/26 0230 56.8   4.5 34   19 28.4   6.9 1.2   1.2 SSW | 206 3.0   3.0 SSW | 208 0.00 6.6   0.7 62.6   1.5 0.00 56.1   5.1 58.4   0.4 3.0   0.1
South Genoa (Walleys Hot Springs) 5/10/26 0230 50.8   0.5 45   20 30.5   8.8 0.0   0.3 N | 0 0.0   1.9 N | 3 0.00 13.9   0.1 67.7   1.3 0.00 50.6   2.5 52.8   2.3 1.4   5.0
SW Gardnerville (HWY 88) 5/10/26 0230 47.6   0.4 71   2 38.8   0.4 1.4   1.4 S | 170 2.6   2.6 S | 169 0.00 3.4   0.1 63.0   1.3 0.00 44.4   1.5 53.0   1.1 4.0   3.5
Sheridan 5/10/26 0230 56.8   3.1 35   15 29.2   6.0 2.8   1.8 W | 274 3.6   3.1 WNW | 288 0.00 3.4   0.5 65.8   1.2 0.00 53.6   3.6 57.0   0.0 4.8   1.9
Ruhenstroth 5/10/26 0230 52.0   1.1 39   19 27.7   9.1 0.5   1.4 SE | 133 2.1   2.0 SSE | 163 0.00 12.5   0.1 65.6   1.5 0.00 51.4   1.3 58.5   3.3 5.5   1.4
Double Spring 5/10/26 0230 44.9   0.9 52   12 28.4   4.1 0.1   0.9 WNW | 289 1.6   0.7 WNW | 287 0.00 31.4   0.0 63.1   1.2 0.00 43.8   0.9 48.2   2.1 2.7   1.7
North Topaz Lake 5/10/26 0230 61.1   2.0 23   12 23.3   8.2 4.3   2.9 NNW | 339 6.2   0.9 NNW | 340 0.00 9.4   0.1 63.3   0.5 0.00 60.1   1.1 63.3   2.4 6.2   0.9
Wild Oat Mountain 5/10/26 0230 60.8   4.2 23   15 22.7   8.5 2.0   3.7 N | 5 3.2   5.3 N | 353 0.00 17.0   0.0 64.7   1.9 0.00 60.4   3.9 62.8   1.3 3.2   6.7
Smith Valley 5/10/26 0230 58.2   2.5 28   14 25.5   7.4 0.6   3.8 WSW | 237 2.9   3.7 W | 265 0.00 5.9   0.0 69.2   1.6 0.00 55.5   1.4 63.8   0.5 8.4   1.0
Pine Grove Mountain 5/10/26 0230 56.2   5.2 20   19 16.3   11.2 6.7   1.5 E | 87 9.6   2.1 E | 85 0.00 20.2   0.7 56.8   1.0 0.00 56.0   5.4 57.3   4.2 9.6   2.2
Paradise Hill 5/10/26 0230 47.3   2.8 32   1 18.9   1.5 1.0   3.1 SW | 222 5.5   0.6 S | 176 0.00 8.0   0.0 65.0   1.1 0.00 46.4   2.5 61.7   2.2 17.1   9.7
Winnemucca 5/10/26 0230 47.8   10.1 31   7 18.3   2.5 6.0   0.0 NE | 37 7.2   0.1 NE | 38 0.00 5.9   0.1 64.9   1.0 0.00 47.5   9.5 59.3   2.1 11.7   3.4
NE Elko 5/10/26 0230 37.5   11.8 40   4 15.7   7.9 2.9   1.6 ENE | 59 5.5   0.7 ENE | 57 0.00 12.5   0.0 62.6   0.2 0.00 37.0   9.7 41.4   15.3 5.5   3.1
North Elko 5/10/26 0230 51.6   4.1 26   1 17.4   4.3 0.8   1.6 NE | 51 2.7   2.1 ENE | 72 0.00 28.6   0.1 61.8   0.4 0.00 49.6   4.5 55.8   2.4 12.7   0.7
South Elko 5/10/26 0230 54.8   1.5 21   8 15.8   8.5 9.4   1.5 NE | 43 10.4   0.4 NE | 43 0.00 18.4   0.1 62.0   0.9 0.00 52.5   1.2 118.6   36.8 12.2   1.4
Lamoille 1/28/26 1720 33.2   0.5 65   17 22.8   6.3 5.8   1.5 SSE | 166 7.7   1.9 SE | 139 0.00 12.2   0.0 33.4   0.1 0.02 23.5   2.0 36.5   5.9 25.6   17.4
Reid Gardner Sub 5/10/26 0230 83.0   10.4 11   8 22.5   4.4 7.6   4.9 NNW | 332 14.7   8.9 NNW | 332 0.00 26.0   0.2 79.1   1.5 0.00 77.1   9.3 83.5   8.8 14.7   8.9
Corn Creek 5/10/26 0230 75.8   4.0 15   1 24.5   4.0 4.6   2.5 SSE | 166 7.0   3.7 SE | 134 0.00 4.0   0.0 84.5   2.1 0.00 73.3   2.8 80.3   0.3 9.2   2.6
Lucky Strike 5/10/26 0230 72.1   1.0 12   3 17.0   4.4 7.5   3.5 WSW | 245 11.0   3.4 WSW | 246 0.00 4.7   0.0 76.8   1.8 0.00 70.6   0.2 73.4   0.4 14.0   2.4
Lower Angel Peak 5/10/26 0230 57.3   4.1 23   1 19.8   2.5 6.3   1.1 S | 188 7.6   0.5 SSW | 194 0.00 9.6   0.4 63.2   1.5 0.00 56.5   4.7 63.5   0.3 10.4   1.1
Angel Peak 5/10/26 0230 57.2   0.1 20   2 16.3   2.6 1.7   1.9 NW | 305 4.0   1.7 NW | 321 0.00 3.6   0.5 59.4   1.3 0.00 56.6   0.6 57.9   0.4 5.2   3.1
Upper Kyle Canyon 5/10/26 0230 53.2   2.1 26   0 19.4   1.8 3.7   1.9 NW | 315 6.2   3.5 NW | 313 0.00 13.0   0.3 62.1   0.9 0.00 53.0   0.9 59.4   3.1 7.9   1.7
Mt Charleston 5/10/26 0230 56.8   1.6 25   3 21.8   3.8 2.1   3.1 W | 274 5.6   3.9 W | 264 0.00 18.2   0.0 53.0   1.5 0.00 55.8   2.2 57.9   3.0 7.3   2.1
Mid Kyle Canyon 5/10/26 0230 58.5   1.5 25   0 22.5   1.3 10.4   1.5 WNW | 293 14.8   2.7 WNW | 287 0.00 7.0   0.1 66.0   0.7 0.00 58.1   1.5 65.3   3.5 18.1   1.7
Blue Diamond 5/10/26 0230 65.8   15.8 21   5 24.6   6.1 0.5   10.5 W | 276 2.4   16.0 WNW | 284 0.00 3.1   0.0 76.4   1.4 0.00 65.0   16.2 69.8   13.5 6.8   12.3
Artesian Sub 5/10/26 0230 83.5   4.7 12   7 26.6   7.8 0.9   0.6 ENE | 66 2.4   0.6 ESE | 107 0.00 13.1   0.1 76.2   0.9 0.00 83.1   4.7 86.3   1.4 5.8   1.9
North Henderson 5/10/26 0230 86.0   1.9 13   4 28.7   8.8 4.6   2.5 NNW | 331 7.3   4.2 NW | 321 0.00 9.7   0.2 84.6   1.9 0.00 85.7   1.9 90.9   1.4 9.6   5.6
Sandy Valley 5/10/26 0230 75.4   2.6 15   7 24.5   11.6 2.0   7.4 NNE | 25 4.2   7.7 NNW | 338 0.00 4.6   0.0 87.4   2.1 0.00 70.4   6.9 83.3   1.5 8.1   4.7
Searchlight 5/10/26 0230 75.8   1.6 15   11 24.9   12.1 6.7   0.3 NW | 326 8.6   2.2 NNW | 329 0.00 4.9   0.1 84.3   1.9 0.00 75.1   1.2 80.0   2.7 13.0   0.6
Laughlin 5/10/26 0230 84.1   4.9 13   6 28.7   13.2 7.6   6.4 NNE | 12 10.2   7.4 N | 7 0.00 4.2   0.0 89.5   1.8 0.00 82.5   5.7 90.6   0.8 10.2   0.1
31Mission Hills 5/10/26 0230 80.7   2.3 14   1 27.2   3.9 1.1   1.3 NNE | 13 3.4   1.1 W | 279 0.00 3.8   0.0 88.0   1.2 0.00 80.3   1.6 83.2   4.3 10.3   1.6
32 Enterprise Sierra Cliffs 5/10/26 0230 81.2   0.9 10   2 19.4   5.1 1.2   5.9 SW | 223 3.8   8.2 SW | 229 0.00 2.2   0.0 82.7   1.6 0.00 80.2   1.2 84.8   0.6 12.8   5.6
Max     86.0 88 38.8 10.4 - 14.8 - 0.00 44.3 89.5 0.03 85.7 118.6 18.1
Avg     58.5 29 23.8 3.0 - 5.0 - 0.00 13.0 63.6 - - - -
Min     37.5 10 14.4 0.0 - 0.0 - 0.00 1.8 32.0 0.00 28.9 41.4 0.0